Time;durP1;ratioP1;P1;durP2;ratioP2;P2;SDS_P1;SDS_P2;PMS_P1;PMS_P2;Temp;Humidity;BMP_temperature;BMP_pressure;BME280_temperature;BME280_humidity;BME280_pressure;Samples;Min_cycle;Max_cycle;Signal;HPM_P1;HPM_P2
2022/01/24 00:02:03;;;;;;;2.60;1.52;;;5.20;99.90;;;5.94;100.00;102404.56;5051811;28;20033;-75
2022/01/24 00:04:29;;;;;;;2.75;1.65;;;5.20;99.90;;;5.90;100.00;102403.47;5050746;28;20014;-75
2022/01/24 00:06:54;;;;;;;1.95;1.48;;;5.20;99.90;;;5.91;100.00;102400.38;5036150;28;20025;-75
2022/01/24 00:09:23;;;;;;;3.30;1.65;;;5.20;99.90;;;5.96;100.00;102405.94;5036043;28;20029;-75
2022/01/24 00:17:17;;;;;;;3.55;1.90;;;5.20;99.90;;;5.99;100.00;102399.81;5037011;28;20087;-76
2022/01/24 00:28:13;;;;;;;2.97;1.50;;;5.20;99.90;;;5.91;100.00;102399.59;5054798;28;20432;-76
2022/01/24 00:30:39;;;;;;;4.53;2.22;;;5.20;99.90;;;5.90;100.00;102397.91;5053667;28;20036;-75
2022/01/24 00:33:05;;;;;;;2.28;2.03;;;5.20;99.90;;;5.91;100.00;102394.03;5055164;28;20039;-75
2022/01/24 00:35:31;;;;;;;2.67;2.00;;;5.20;99.90;;;5.95;100.00;102403.44;5054873;28;20037;-74
2022/01/24 00:38:00;;;;;;;3.33;1.52;;;5.20;99.90;;;5.94;100.00;102399.81;5054407;28;20480;-74
2022/01/24 00:40:40;;;;;;;3.22;1.90;;;5.20;99.90;;;5.94;100.00;102407.34;5036316;28;20040;-76
2022/01/24 00:43:21;;;;;;;1.55;1.23;;;5.20;99.90;;;5.95;100.00;102400.66;5054107;28;20021;-75
2022/01/24 00:46:03;;;;;;;3.60;1.73;;;5.20;99.90;;;5.94;100.00;102407.34;5054838;28;20104;-75
2022/01/24 00:54:00;;;;;;;3.83;1.50;;;5.10;99.90;;;5.91;100.00;102400.38;5056899;28;20091;-75
2022/01/24 00:56:27;;;;;;;2.70;1.90;;;5.10;99.90;;;5.89;100.00;102401.78;5055825;28;20029;-74
2022/01/24 00:58:55;;;;;;;2.78;1.50;;;5.10;99.90;;;5.88;100.00;102406.50;5056233;28;20163;-75
2022/01/24 01:01:21;;;;;;;1.92;1.60;;;5.10;99.90;;;5.88;100.00;102400.13;5053848;28;20115;-74
2022/01/24 01:03:47;;;;;;;2.72;1.67;;;5.10;99.90;;;5.85;100.00;102401.50;5052336;28;20033;-75
2022/01/24 01:06:16;;;;;;;2.90;2.00;;;5.10;99.90;;;5.81;100.00;102394.88;5053667;28;20595;-76
2022/01/24 01:19:44;;;;;;;2.67;1.67;;;5.10;99.90;;;5.91;100.00;102399.59;5054020;28;20043;-75
2022/01/24 01:22:14;;;;;;;1.70;1.30;;;5.10;99.90;;;5.90;100.00;102403.47;5053549;28;20048;-77
2022/01/24 01:24:49;;;;;;;2.08;1.45;;;5.10;99.90;;;5.88;100.00;102397.34;5053970;28;20033;-76
2022/01/24 01:27:21;;;;;;;;;;;5.10;99.90;;;5.86;100.00;102407.91;5038044;28;20398;-74
2022/01/24 01:32:59;;;;;;;4.70;1.80;;;5.10;99.90;;;5.79;100.00;102408.19;5031546;28;20400;-74
2022/01/24 01:35:56;;;;;;;2.38;1.70;;;5.10;99.90;;;5.82;100.00;102396.53;5033315;28;20088;-76
2022/01/24 01:57:21;;;;;;;2.03;1.52;;;5.10;99.90;;;5.83;100.00;102389.88;5033182;28;20044;-74
2022/01/24 01:59:50;;;;;;;2.40;1.55;;;5.10;99.90;;;5.79;100.00;102389.59;5032862;28;20029;-75
2022/01/24 02:02:16;;;;;;;1.67;1.45;;;5.10;99.90;;;5.78;100.00;102387.94;5033305;28;20232;-76
2022/01/24 02:04:42;;;;;;;2.58;1.85;;;5.10;99.90;;;5.82;100.00;102379.88;5033080;28;20034;-75
2022/01/24 02:07:15;;;;;;;2.45;1.50;;;5.10;99.90;;;5.80;100.00;102382.94;5032915;28;20034;-75
2022/01/24 02:09:47;;;;;;;2.15;1.48;;;5.10;99.90;;;5.79;100.00;102386.84;5033129;28;20021;-74
2022/01/24 02:12:17;;;;;;;2.25;1.50;;;5.10;99.90;;;5.82;100.00;102377.94;5033228;28;20125;-74
2022/01/24 02:14:55;;;;;;;3.40;1.60;;;5.10;99.90;;;5.78;100.00;102374.06;5033117;28;20018;-76
2022/01/24 02:17:32;;;;;;;3.17;1.85;;;5.10;99.90;;;5.77;100.00;102371.59;5014698;28;20026;-75
2022/01/24 02:20:27;;;;;;;1.85;1.50;;;5.10;99.90;;;5.76;100.00;102375.47;5032559;28;20109;-76
2022/01/24 02:25:38;;;;;;;1.42;1.27;;;5.10;99.90;;;5.82;100.00;102363.25;5038271;28;20519;-75
2022/01/24 02:28:05;;;;;;;2.35;1.58;;;5.10;99.90;;;5.77;100.00;102361.34;5052305;28;20108;-75
2022/01/24 02:33:06;;;;;;;1.40;1.30;;;5.10;99.90;;;5.78;100.00;102357.44;5052357;28;20130;-74
2022/01/24 02:35:36;;;;;;;1.63;1.40;;;5.10;99.90;;;5.80;100.00;102359.94;5052653;28;20036;-74
2022/01/24 02:38:10;;;;;;;2.40;1.42;;;5.10;99.90;;;5.82;100.00;102352.97;5052050;28;20036;-75
2022/01/24 02:40:36;;;;;;;1.83;1.50;;;5.10;99.90;;;5.83;100.00;102349.09;5052712;28;20028;-77
2022/01/24 02:48:22;;;;;;;2.45;1.58;;;5.10;99.90;;;5.80;100.00;102333.03;5052523;28;20458;-75
2022/01/24 02:48:47;;;;;;;2.55;1.73;;;5.10;99.90;;;5.86;100.00;102341.34;5052157;28;20087;-75
2022/01/24 02:53:41;;;;;;;3.90;1.50;;;5.10;99.90;;;5.80;100.00;102332.22;5052430;28;20457;-74
2022/01/24 02:56:07;;;;;;;2.40;1.30;;;5.10;99.90;;;5.79;100.00;102339.69;5052329;28;20028;-75
2022/01/24 02:58:36;;;;;;;2.38;1.40;;;5.10;99.90;;;5.83;100.00;102338.00;5051679;28;20105;-74
2022/01/24 03:01:07;;;;;;;1.67;1.25;;;5.10;99.90;;;5.83;100.00;102328.88;5033937;28;20033;-75
2022/01/24 03:03:40;;;;;;;2.25;1.50;;;5.10;99.90;;;5.71;100.00;102332.00;5052253;28;20036;-74
2022/01/24 03:06:06;;;;;;;2.40;1.30;;;5.10;99.90;;;5.80;100.00;102333.03;5051680;28;20365;-77
2022/01/24 03:08:33;;;;;;;1.83;1.55;;;5.10;99.90;;;5.82;100.00;102324.41;5050110;28;20036;-74
2022/01/24 03:11:00;;;;;;;2.67;1.75;;;5.10;99.90;;;5.82;100.00;102333.56;5051846;28;20257;-74
2022/01/24 03:15:59;;;;;;;2.38;1.75;;;5.10;99.90;;;5.79;100.00;102323.06;5051507;28;20036;-75
2022/01/24 03:18:26;;;;;;;2.95;1.67;;;5.10;99.90;;;5.80;100.00;102327.50;5051499;28;20472;-76
2022/01/24 03:20:53;;;;;;;2.20;1.63;;;5.10;99.90;;;5.80;100.00;102321.94;5051405;28;20147;-75
2022/01/24 03:23:23;;;;;;;1.60;1.48;;;5.00;99.90;;;5.79;100.00;102336.09;5050405;28;20025;-76
2022/01/24 03:25:50;;;;;;;2.15;1.77;;;5.00;99.90;;;5.79;100.00;102331.38;5044446;28;20044;-76
2022/01/24 03:28:16;;;;;;;2.95;1.50;;;5.00;99.90;;;5.81;100.00;102326.38;5031743;28;20117;-75
2022/01/24 03:30:43;;;;;;;2.13;1.73;;;5.00;99.90;;;5.80;100.00;102329.44;5031429;28;20543;-76
2022/01/24 03:33:10;;;;;;;2.13;1.55;;;5.00;99.90;;;5.80;100.00;102333.03;5031792;28;20042;-76
2022/01/24 03:35:37;;;;;;;2.35;1.85;;;5.10;99.90;;;5.77;100.00;102328.06;5033629;28;20045;-74
2022/01/24 03:38:04;;;;;;;2.47;1.67;;;5.10;99.90;;;5.81;100.00;102331.91;5017510;28;20044;-75
2022/01/24 03:40:32;;;;;;;1.83;1.73;;;5.10;99.90;;;5.83;100.00;102326.91;5035027;28;20029;-75
2022/01/24 03:42:58;;;;;;;2.25;1.60;;;5.10;99.90;;;5.83;100.00;102326.91;5034109;28;20082;-76
2022/01/24 03:45:46;;;;;;;2.97;1.65;;;5.10;99.90;;;5.81;100.00;102328.31;5035326;28;20030;-76
2022/01/24 03:48:37;;;;;;;2.67;1.63;;;5.10;99.90;;;5.81;100.00;102326.38;5036064;28;20025;-75
2022/01/24 03:51:03;;;;;;;2.00;1.60;;;5.10;99.90;;;5.81;100.00;102326.38;5035293;28;20048;-76
2022/01/24 03:53:28;;;;;;;2.88;2.05;;;5.10;99.90;;;5.71;100.00;102323.66;5035078;28;20104;-75
2022/01/24 03:55:57;;;;;;;2.38;1.48;;;5.10;99.90;;;5.78;100.00;102321.38;5017573;28;20064;-75
2022/01/24 03:58:23;;;;;;;2.33;1.98;;;5.10;99.90;;;5.80;100.00;102321.94;5056287;23;20095;-80
2022/01/24 04:00:52;;;;;;;2.35;1.65;;;5.10;99.90;;;5.83;100.00;102315.84;5035479;28;20033;-82
2022/01/24 04:03:22;;;;;;;2.47;1.70;;;5.10;99.90;;;5.86;100.00;102324.72;5035538;28;20512;-80
2022/01/24 04:05:51;;;;;;;2.25;1.73;;;5.10;99.90;;;5.83;100.00;102326.91;5035568;28;20029;-81
2022/01/24 04:08:17;;;;;;;5.85;1.77;;;5.10;99.90;;;5.77;100.00;102316.16;5038525;28;20052;-78
2022/01/24 04:10:50;;;;;;;3.70;1.70;;;5.10;99.90;;;5.77;100.00;102318.91;5033631;28;20136;-81
2022/01/24 04:13:31;;;;;;;1.90;1.65;;;5.10;99.90;;;5.79;100.00;102311.97;5037277;28;20458;-81
2022/01/24 04:16:23;;;;;;;2.15;1.60;;;5.10;99.90;;;5.82;100.00;102313.31;5019267;28;20026;-82
2022/01/24 04:24:03;;;;;;;2.03;1.38;;;5.00;99.90;;;5.79;100.00;102314.72;5036020;28;20052;-82
2022/01/24 04:26:33;;;;;;;1.77;1.30;;;5.00;99.90;;;5.80;100.00;102312.78;5029810;28;20036;-82
2022/01/24 04:29:01;;;;;;;3.67;1.80;;;5.00;99.90;;;5.79;100.00;102311.97;5054965;28;20025;-81
2022/01/24 04:31:29;;;;;;;2.03;1.50;;;5.00;99.90;;;5.82;100.00;102319.72;5056278;28;20032;-82
2022/01/24 04:33:57;;;;;;;2.65;1.85;;;5.00;99.90;;;5.81;100.00;102315.28;5056275;28;20042;-80
2022/01/24 04:36:26;;;;;;;2.50;1.60;;;5.00;99.90;;;5.80;100.00;102315.56;5055262;28;20048;-81
2022/01/24 04:38:53;;;;;;;2.63;1.90;;;5.00;99.90;;;5.81;100.00;102312.50;5056088;28;20112;-82
2022/01/24 04:41:27;;;;;;;3.08;1.80;;;5.00;99.90;;;5.82;100.00;102308.63;5061616;28;20058;-82
2022/01/24 04:44:07;;;;;;;20.27;7.32;;;5.00;99.90;;;5.89;100.00;102313.03;5058385;28;20361;-83
2022/01/24 04:54:49;;;;;;;3.97;2.20;;;5.10;99.90;;;5.84;100.00;102317.47;5057161;28;20051;-84
2022/01/24 04:57:21;;;;;;;2.92;2.00;;;5.10;99.90;;;5.88;100.00;102319.69;5056725;28;20025;-80
2022/01/24 04:59:55;;;;;;;4.43;2.72;;;5.10;99.90;;;5.86;100.00;102322.78;5037800;28;20040;-81
2022/01/24 05:02:25;;;;;;;5.72;3.08;;;5.10;99.90;;;5.88;100.00;102322.47;5038827;28;20025;-82
2022/01/24 05:04:53;;;;;;;3.17;2.13;;;5.10;99.90;;;5.88;100.00;102320.53;5055658;28;20021;-81
2022/01/24 05:07:22;;;;;;;4.63;2.33;;;5.10;99.90;;;5.88;100.00;102325.25;5054320;28;20025;-85
2022/01/24 05:12:32;;;;;;;2.95;1.92;;;5.10;99.90;;;5.83;100.00;102326.09;5061459;28;20037;-82
2022/01/24 05:23:35;;;;;;;3.75;2.45;;;5.10;99.90;;;5.72;100.00;102332.78;5072347;28;20040;-85
2022/01/24 05:26:08;;;;;;;3.50;2.08;;;5.10;99.90;;;5.84;100.00;102331.34;5061125;28;20025;-81
2022/01/24 05:28:37;;;;;;;3.65;1.70;;;5.10;99.90;;;5.99;100.00;102329.63;5056057;28;20519;-84
2022/01/24 05:31:05;;;;;;;2.75;2.00;;;5.20;99.90;;;6.00;100.00;102329.34;5057285;28;20020;-85
2022/01/24 05:33:32;;;;;;;2.63;2.17;;;5.20;99.90;;;5.94;100.00;102322.16;5042264;28;20173;-83
2022/01/24 05:35:58;;;;;;;3.22;2.47;;;5.20;99.90;;;5.88;100.00;102325.25;5043669;28;20037;-86
2022/01/24 05:38:24;;;;;;;3.47;2.85;;;5.20;99.90;;;5.87;100.00;102321.66;5056986;28;20033;-82
2022/01/24 05:40:51;;;;;;;2.97;2.47;;;5.10;99.90;;;5.81;100.00;102323.59;5055983;28;20029;-81
2022/01/24 05:43:18;;;;;;;2.65;2.17;;;5.10;99.90;;;5.78;100.00;102317.78;5056282;28;20055;-82
2022/01/24 05:45:44;;;;;;;2.65;2.10;;;5.10;99.90;;;5.84;100.00;102314.69;5037714;28;20029;-82
2022/01/24 05:48:10;;;;;;;3.30;2.30;;;5.10;99.90;;;5.88;100.00;102311.38;5039331;28;20028;-82
2022/01/24 05:50:36;;;;;;;4.20;2.00;;;5.10;99.90;;;5.89;100.00;102319.44;5038148;28;20424;-81
2022/01/24 05:53:08;;;;;;;2.25;1.95;;;5.10;99.90;;;5.87;100.00;102324.44;5038160;28;20056;-81
2022/01/24 05:55:34;;;;;;;4.50;2.90;;;5.10;99.90;;;5.75;100.00;102319.19;5053189;28;20039;-83
2022/01/24 05:58:00;;;;;;;5.13;3.67;;;5.10;99.90;;;5.77;100.00;102322.53;5035639;28;20040;-83
2022/01/24 06:00:30;;;;;;;4.70;2.63;;;5.10;99.90;;;5.75;100.00;102319.19;5052593;28;20113;-82
2022/01/24 06:02:58;;;;;;;6.70;2.08;;;5.10;99.90;;;5.74;100.00;102311.16;5036486;28;20025;-80
2022/01/24 06:05:27;;;;;;;5.13;2.35;;;5.10;99.90;;;5.74;100.00;102316.72;5053857;28;20037;-80
2022/01/24 06:07:55;;;;;;;3.85;2.50;;;5.10;99.90;;;5.75;100.00;102313.66;5053648;28;20051;-82
2022/01/24 06:10:24;;;;;;;2.33;2.13;;;5.00;99.90;;;5.73;100.00;102318.66;5052357;28;20049;-82
2022/01/24 06:12:49;;;;;;;2.92;2.40;;;5.00;99.90;;;5.74;100.00;102323.09;5053935;28;20033;-82
2022/01/24 06:15:18;;;;;;;4.43;2.90;;;5.00;99.90;;;5.74;100.00;102334.19;5053323;28;20075;-81
2022/01/24 06:17:44;;;;;;;3.45;2.75;;;5.00;99.90;;;5.74;100.00;102330.56;5052347;28;20392;-81
2022/01/24 06:20:10;;;;;;;3.47;2.22;;;5.00;99.90;;;5.76;100.00;102326.41;5053429;28;20033;-81
2022/01/24 06:22:43;;;;;;;4.03;2.50;;;5.00;99.90;;;5.76;100.00;102326.41;5035711;28;20028;-80
2022/01/24 06:25:10;;;;;;;2.78;2.30;;;5.00;99.90;;;5.78;100.00;102324.16;5034119;28;20064;-80
2022/01/24 06:27:37;;;;;;;4.63;2.67;;;5.00;99.90;;;5.76;100.00;102318.09;5031740;28;20021;-78
2022/01/24 06:30:04;;;;;;;4.70;2.88;;;5.00;99.90;;;5.75;100.00;102324.72;5032656;28;20041;-83
2022/01/24 06:32:30;;;;;;;5.63;2.75;;;5.00;99.90;;;5.73;100.00;102321.44;5032913;28;20025;-80
2022/01/24 06:34:56;;;;;;;5.25;3.53;;;5.00;99.90;;;5.71;100.00;102323.66;5032420;28;20033;-79
2022/01/24 06:37:22;;;;;;;4.63;3.45;;;5.00;99.90;;;5.70;100.00;102313.69;5031202;28;20037;-79
2022/01/24 06:39:51;;;;;;;6.40;4.20;;;5.00;99.90;;;5.72;100.00;102303.13;5031716;28;20033;-78
2022/01/24 06:42:22;;;;;;;4.28;3.88;;;5.00;99.90;;;5.66;100.00;102309.81;5032705;28;20485;-78
2022/01/24 06:44:51;;;;;;;172.38;53.05;;;5.00;99.90;;;5.78;100.00;102317.78;5032023;28;20044;-77
2022/01/24 06:47:17;;;;;;;45.25;15.95;;;5.00;99.90;;;5.76;100.00;102318.09;5033088;28;20021;-81
2022/01/24 06:49:43;;;;;;;10.23;5.80;;;4.90;99.90;;;5.72;100.00;102313.38;5031834;28;20047;-80
2022/01/24 06:52:09;;;;;;;5.20;4.03;;;5.00;99.90;;;5.67;100.00;102321.75;5032659;28;20026;-77
2022/01/24 06:54:37;;;;;;;5.78;4.22;;;5.00;99.90;;;5.71;100.00;102317.28;5033548;28;20036;-81
2022/01/24 06:57:04;;;;;;;4.70;3.45;;;5.00;99.90;;;5.70;100.00;102322.00;5031163;28;20038;-83
2022/01/24 06:59:30;;;;;;;6.30;3.88;;;5.00;99.90;;;5.67;100.00;102322.56;5032058;28;20044;-81
2022/01/24 07:01:56;;;;;;;6.20;3.80;;;5.00;99.90;;;5.72;100.00;102327.25;5032334;28;20056;-82
2022/01/24 07:04:22;;;;;;;4.43;3.95;;;5.00;99.90;;;5.71;100.00;102334.75;5033823;28;20037;-86
2022/01/24 07:06:48;;;;;;;6.32;4.20;;;5.00;99.90;;;5.59;100.00;102342.56;5031698;28;20029;-81
2022/01/24 07:09:17;;;;;;;4.70;3.95;;;5.00;99.90;;;5.59;100.00;102337.00;5031436;28;20116;-82
2022/01/24 07:11:42;;;;;;;6.32;3.90;;;5.00;99.90;;;5.66;100.00;102342.25;5032615;28;20034;-81
2022/01/24 07:14:12;;;;;;;5.10;4.38;;;5.00;99.90;;;5.69;100.00;102338.91;5034362;28;20030;-79
2022/01/24 07:19:16;;;;;;;4.85;4.00;;;4.90;99.90;;;5.70;100.00;102348.88;5035482;28;20112;-80
2022/01/24 07:21:42;;;;;;;4.10;3.70;;;4.90;99.90;;;5.71;100.00;102343.06;5033381;28;20021;-81
2022/01/24 07:24:08;;;;;;;5.90;4.88;;;4.90;99.90;;;5.67;100.00;102353.06;5034784;28;20156;-81
2022/01/24 07:26:35;;;;;;;5.10;3.88;;;4.90;99.90;;;5.64;100.00;102352.81;5033548;28;20025;-80
2022/01/24 07:29:01;;;;;;;5.30;4.57;;;4.90;99.90;;;5.61;100.00;102353.38;5034782;28;20045;-83
2022/01/24 07:31:27;;;;;;;6.32;4.70;;;4.90;99.90;;;5.52;100.00;102355.88;5034513;28;20112;-82
2022/01/24 07:33:55;;;;;;;6.38;4.95;;;4.90;99.90;;;5.56;100.00;102353.38;5033957;28;20028;-81
2022/01/24 07:36:25;;;;;;;5.07;4.57;;;4.90;99.90;;;5.63;100.00;102360.28;5036089;28;20030;-82
2022/01/24 07:38:52;;;;;;;6.75;5.15;;;4.90;99.90;;;5.74;100.00;102369.41;5035347;28;20396;-82
2022/01/24 07:41:24;;;;;;;11.95;7.50;;;4.90;99.90;;;5.68;100.00;102368.56;5033143;28;20036;-82
2022/01/24 07:43:51;;;;;;;5.72;4.63;;;4.90;99.90;;;5.65;100.00;102363.59;5032948;28;20025;-82
2022/01/24 07:46:17;;;;;;;7.28;5.40;;;4.90;99.90;;;5.58;100.00;102373.34;5032351;28;20116;-83
2022/01/24 07:48:46;;;;;;;8.15;4.47;;;4.90;99.90;;;5.62;100.00;102369.72;5033018;28;20036;-81
2022/01/24 07:51:12;;;;;;;6.93;5.18;;;4.90;99.90;;;5.62;100.00;102366.94;5033141;28;20091;-81
2022/01/24 07:53:38;;;;;;;5.97;5.38;;;4.90;99.90;;;5.64;100.00;102373.03;5032287;28;20393;-82
2022/01/24 07:56:09;;;;;;;7.03;5.20;;;5.00;99.90;;;5.66;100.00;102372.75;5032366;28;20033;-83
2022/01/24 07:58:44;;;;;;;8.00;4.95;;;5.00;99.90;;;5.68;100.00;102376.09;5033246;28;20125;-83
2022/01/24 08:01:14;;;;;;;5.93;4.60;;;5.00;99.90;;;5.69;100.00;102374.94;5032868;28;20077;-82
2022/01/24 08:03:41;;;;;;;5.35;4.85;;;5.00;99.90;;;5.70;100.00;102384.94;5033280;28;20021;-81
2022/01/24 08:06:07;;;;;;;6.80;4.70;;;5.00;99.90;;;5.70;100.00;102380.22;5033383;28;20052;-79
2022/01/24 08:08:33;;;;;;;6.03;4.88;;;5.00;99.90;;;5.65;100.00;102374.69;5032538;28;20125;-81
2022/01/24 08:10:59;;;;;;;6.70;4.90;;;4.90;99.90;;;5.68;100.00;102379.66;5033163;28;20040;-81
2022/01/24 08:13:25;;;;;;;7.97;4.70;;;5.00;99.90;;;5.71;100.00;102379.13;5048820;28;20052;-81
2022/01/24 08:15:51;;;;;;;6.13;4.53;;;5.00;99.90;;;5.76;100.00;102390.19;5032635;28;20763;-81
2022/01/24 08:18:20;;;;;;;5.47;4.85;;;5.00;99.90;;;5.72;100.00;102386.31;5031830;28;20029;-81
2022/01/24 08:20:46;;;;;;;5.22;4.40;;;5.00;99.90;;;5.78;100.00;102390.72;5048679;28;20041;-81
2022/01/24 08:23:17;;;;;;;4.43;3.95;;;5.00;99.90;;;5.76;100.00;102387.41;5035196;28;20061;-82
2022/01/24 08:25:43;;;;;;;7.50;4.53;;;5.00;99.90;;;5.76;100.00;102384.63;5041788;28;20428;-81
2022/01/24 08:28:09;;;;;;;7.25;4.38;;;5.00;99.90;;;5.62;100.00;102386.34;5055596;28;20052;-79
2022/01/24 08:30:36;;;;;;;7.43;4.60;;;5.00;99.90;;;5.65;100.00;102377.44;5058959;28;20025;-79
2022/01/24 08:33:02;;;;;;;6.75;4.70;;;4.90;99.90;;;5.68;100.00;102376.09;5059386;28;20112;-82
2022/01/24 08:35:32;;;;;;;4.90;4.35;;;4.90;99.90;;;5.70;100.00;102369.13;5058630;28;20079;-83
2022/01/24 08:37:59;;;;;;;10.70;4.90;;;4.90;99.90;;;5.71;100.00;102376.34;5059835;28;20061;-81
2022/01/24 08:40:27;;;;;;;7.82;5.10;;;4.90;99.90;;;5.73;100.00;102370.50;5059563;28;20124;-82
2022/01/24 08:43:02;;;;;;;4.75;4.30;;;4.90;99.90;;;5.66;100.00;102372.75;5041747;28;20187;-82
2022/01/24 08:48:12;;;;;;;6.75;5.28;;;5.00;99.90;;;5.75;100.00;102368.25;5058750;28;20031;-81
2022/01/24 08:50:43;;;;;;;6.10;4.68;;;5.00;99.90;;;5.80;100.00;102369.09;5058723;28;20064;-81
2022/01/24 08:53:12;;;;;;;5.50;4.68;;;5.00;99.90;;;5.79;100.00;102363.81;5040769;28;20029;-81
2022/01/24 08:55:40;;;;;;;6.07;4.90;;;5.00;99.90;;;5.75;100.00;102371.88;5057708;28;20167;-80
2022/01/24 08:58:13;;;;;;;6.05;4.55;;;5.00;99.90;;;5.87;100.00;102379.91;5041330;28;20112;-82
2022/01/24 09:00:44;;;;;;;7.07;4.75;;;5.10;99.90;;;5.86;100.00;102372.69;5042714;28;20033;-81
2022/01/24 09:03:12;;;;;;;4.82;4.28;;;5.10;99.90;;;5.79;100.00;102386.00;5059873;28;20044;-79
2022/01/24 09:05:40;;;;;;;6.88;5.03;;;5.10;99.90;;;5.79;100.00;102386.84;5042533;28;20097;-81
2022/01/24 09:08:07;;;;;;;6.60;4.20;;;5.10;99.90;;;5.84;100.00;102386.78;5059023;28;20029;-80
2022/01/24 09:10:38;;;;;;;7.85;4.88;;;5.10;99.90;;;5.84;100.00;102378.47;5042165;28;20036;-82
2022/01/24 09:13:06;;;;;;;4.50;4.10;;;5.10;99.90;;;5.86;100.00;102382.94;5059657;28;20033;-78
2022/01/24 09:15:36;;;;;;;6.90;4.88;;;5.10;99.90;;;5.84;100.00;102378.47;5042183;28;20086;-81
2022/01/24 09:18:05;;;;;;;4.88;4.38;;;5.10;99.90;;;5.90;100.00;102379.34;5059465;28;20063;-82
2022/01/24 09:20:32;;;;;;;6.60;4.95;;;5.10;99.90;;;5.92;100.00;102381.81;5057691;28;20065;-86
2022/01/24 09:22:58;;;;;;;5.53;4.68;;;5.10;99.90;;;5.94;100.00;102379.59;5040538;28;20106;-82
2022/01/24 09:25:24;;;;;;;6.28;4.25;;;5.10;99.90;;;5.98;100.00;102387.03;5063432;28;20020;-85
2022/01/24 09:27:53;;;;;;;7.10;4.80;;;5.10;99.90;;;6.00;100.00;102393.16;5051448;28;20096;-82
2022/01/24 09:30:23;;;;;;;6.75;4.18;;;5.20;99.90;;;6.02;100.00;102388.16;5067963;28;20110;-80
2022/01/24 09:32:51;;;;;;;5.75;4.32;;;5.20;99.90;;;6.06;100.00;102374.53;5058722;28;20112;-80
2022/01/24 09:35:22;;;;;;;4.20;3.80;;;5.20;99.90;;;6.08;100.00;102378.66;5041314;28;20029;-83
2022/01/24 09:37:50;;;;;;;5.85;4.40;;;5.20;99.90;;;6.11;100.00;102380.88;5059530;28;20025;-82
2022/01/24 09:40:19;;;;;;;4.93;4.32;;;5.30;99.90;;;6.12;100.00;102385.31;5059619;28;20032;-83
2022/01/24 09:42:46;;;;;;;6.70;4.88;;;5.30;99.90;;;6.05;100.00;102389.50;5058023;28;20025;-80
2022/01/24 09:45:17;;;;;;;8.45;4.55;;;5.30;99.90;;;5.99;100.00;102383.16;5040038;28;20031;-83
2022/01/24 09:47:45;;;;;;;7.35;5.28;;;5.30;99.90;;;5.95;99.55;102384.00;5057789;28;20564;-80
2022/01/24 09:50:15;;;;;;;7.05;4.95;;;5.20;99.90;;;6.02;99.21;102378.97;5039480;28;20037;-80
2022/01/24 09:52:46;;;;;;;5.38;4.65;;;5.20;99.90;;;6.05;99.51;102381.19;5038923;28;20028;-79
2022/01/24 09:55:21;;;;;;;5.82;4.65;;;5.30;99.90;;;6.07;99.24;102377.00;5039510;28;20040;-83
2022/01/24 09:57:48;;;;;;;6.75;5.03;;;5.30;99.90;;;6.10;99.41;102373.66;5056501;28;20037;-81
2022/01/24 10:00:21;;;;;;;7.38;5.63;;;5.30;99.90;;;6.15;99.22;102370.88;5057447;28;20112;-81
2022/01/24 10:02:53;;;;;;;9.23;5.30;;;5.30;99.90;;;6.10;99.89;102375.63;5058095;28;20108;-83
2022/01/24 10:05:30;;;;;;;5.53;4.90;;;5.30;99.90;;;6.14;99.52;102377.53;5039561;28;20032;-82
2022/01/24 10:08:26;;;;;;;7.63;5.78;;;5.40;99.90;;;6.16;98.87;102386.41;5042690;28;20048;-83
2022/01/24 10:11:03;;;;;;;8.15;5.55;;;5.40;99.90;;;6.20;99.27;102378.31;5038000;28;20034;-83
2022/01/24 10:16:45;;;;;;;6.65;5.07;;;5.40;99.90;;;6.30;99.36;102390.19;5037198;28;20096;-82
2022/01/24 10:19:23;;;;;;;6.30;5.10;;;5.40;99.90;;;6.32;99.33;102390.72;5036706;28;20128;-83
2022/01/24 10:22:00;;;;;;;6.72;5.47;;;5.50;99.90;;;6.39;96.87;102393.16;5037594;28;20112;-83
2022/01/24 10:24:26;;;;;;;7.15;5.35;;;5.40;99.90;;;6.35;96.97;102384.63;5036360;28;20120;-84
2022/01/24 10:27:17;;;;;;;7.20;5.95;;;5.40;99.90;;;6.37;96.99;102384.31;5053204;28;20064;-83
2022/01/24 10:30:05;;;;;;;5.57;4.57;;;5.40;99.90;;;6.38;98.06;102376.81;5055445;28;20047;-83
2022/01/24 10:32:48;;;;;;;8.98;6.05;;;5.50;99.90;;;6.25;98.17;102384.69;5038952;28;20401;-82
2022/01/24 10:35:46;;;;;;;8.88;5.72;;;5.50;99.90;;;5.98;98.67;102377.88;5054924;28;20133;-79
2022/01/24 10:38:44;;;;;;;6.82;5.78;;;5.40;99.90;;;6.13;98.49;102372.28;5055151;28;20035;-85
2022/01/24 10:41:23;;;;;;;7.30;6.32;;;5.40;99.90;;;6.13;98.79;102372.28;5056044;28;20053;-83
2022/01/24 10:43:56;;;;;;;9.27;5.78;;;5.40;99.90;;;6.18;98.68;102373.06;5037995;28;20029;-83
2022/01/24 10:46:26;;;;;;;9.85;5.78;;;5.40;99.90;;;6.13;97.99;102372.28;5056333;28;20025;-84
2022/01/24 10:49:09;;;;;;;8.75;5.70;;;5.40;99.90;;;6.16;98.53;102372.53;5054422;28;20025;-83
2022/01/24 10:51:44;;;;;;;7.00;5.60;;;5.40;99.90;;;6.17;97.90;102370.56;5038574;28;20025;-83
2022/01/24 10:54:17;;;;;;;8.77;6.25;;;5.40;99.90;;;6.17;97.78;102373.34;5055156;28;20060;-83
2022/01/24 10:56:45;;;;;;;7.55;5.88;;;5.40;99.90;;;6.15;97.89;102373.63;5055200;28;20029;-83
2022/01/24 10:59:24;;;;;;;7.18;5.78;;;5.40;99.90;;;6.29;97.54;102371.88;5054917;28;20039;-80
2022/01/24 11:02:03;;;;;;;9.23;5.43;;;5.50;99.90;;;6.28;98.01;102373.00;5055873;28;20107;-82
2022/01/24 11:04:30;;;;;;;9.25;6.10;;;5.50;99.90;;;6.28;97.57;102363.84;5056692;28;20029;-85
2022/01/24 11:07:02;;;;;;;7.55;5.20;;;5.50;99.90;;;6.36;97.10;102358.50;5039280;28;20427;-82
2022/01/24 11:09:42;;;;;;;8.27;5.28;;;5.50;99.90;;;6.44;96.96;102362.63;5057060;28;20029;-83
2022/01/24 11:12:13;;;;;;;7.97;5.60;;;5.50;99.90;;;6.44;96.67;102354.28;5056680;28;20033;-83
2022/01/24 11:14:44;;;;;;;5.53;4.85;;;5.60;99.90;;;6.41;96.89;102351.25;5056275;28;20028;-83
2022/01/24 11:17:20;;;;;;;6.47;5.25;;;5.60;99.90;;;6.35;97.76;102347.69;5055262;28;20028;-83
2022/01/24 11:19:56;;;;;;;12.00;5.97;;;5.50;99.90;;;6.02;97.67;102342.91;5056197;28;20108;-82
2022/01/24 11:22:28;;;;;;;;;;;5.50;99.90;;;5.98;98.75;102339.06;5037803;28;20484;-82
2022/01/24 11:25:06;;;;;;;7.45;5.97;;;5.40;99.90;;;6.18;97.69;102341.72;5055897;28;19919;-83
2022/01/24 11:27:41;;;;;;;7.82;5.57;;;5.50;99.90;;;6.24;97.06;102333.06;4998593;28;20030;-83
2022/01/24 11:30:54;;;;;;;7.85;5.45;;;5.50;99.90;;;6.31;96.91;102338.28;4999281;28;20034;-82
2022/01/24 11:33:38;;;;;;;6.45;4.68;;;5.60;99.90;;;6.43;96.72;102335.97;5008427;28;20088;-81
2022/01/24 11:36:08;;;;;;;6.93;5.30;;;5.60;99.90;;;6.46;95.63;102338.16;5012487;28;20030;-81
2022/01/24 11:38:43;;;;;;;8.43;5.60;;;5.60;99.90;;;6.34;95.75;102330.22;5012467;28;20525;-85
2022/01/24 11:41:26;;;;;;;8.10;5.33;;;5.60;99.90;;;6.47;95.99;102342.59;5014710;28;20378;-83
2022/01/24 11:44:06;;;;;;;6.95;5.00;;;5.60;99.90;;;6.48;95.69;102329.56;5012504;28;20468;-84
2022/01/24 11:46:55;;;;;;;14.60;6.97;;;5.70;99.90;;;6.38;96.49;102336.03;5013212;28;20037;-81
2022/01/24 11:49:46;;;;;;;8.55;5.68;;;5.60;99.90;;;6.31;96.26;102339.13;5014518;28;20037;-83
2022/01/24 11:52:18;;;;;;;10.68;5.93;;;5.60;99.90;;;6.16;97.56;102343.97;5013117;28;20084;-83
2022/01/24 11:57:38;;;;;;;11.35;6.55;;;5.50;99.90;;;6.05;97.64;102336.81;5015963;28;20464;-82
2022/01/24 12:00:04;;;;;;;8.07;6.35;;;5.50;99.90;;;6.31;96.96;102325.25;5015236;28;20116;-81
2022/01/24 12:02:46;;;;;;;8.80;6.00;;;5.50;99.90;;;6.32;96.25;102329.66;5000114;28;20431;-82
2022/01/24 12:05:53;;;;;;;7.97;6.53;;;5.60;99.90;;;6.44;96.32;102334.88;5000059;28;20029;-84
2022/01/24 12:08:41;;;;;;;8.57;5.75;;;5.60;99.90;;;6.49;95.88;102315.38;5015639;28;20026;-80
2022/01/24 12:11:29;;;;;;;6.80;5.65;;;5.70;99.90;;;6.51;95.31;102327.03;5015983;28;20033;-81
2022/01/24 12:14:10;;;;;;;6.38;4.90;;;5.70;99.90;;;6.58;95.57;102319.19;5016617;28;20033;-81
2022/01/24 12:16:42;;;;;;;7.25;5.68;;;5.70;99.90;;;6.63;95.48;102332.19;5017651;28;20022;-85
2022/01/24 12:19:12;;;;;;;6.45;5.55;;;5.80;99.90;;;6.56;95.44;102320.59;5020577;28;20085;-84